sensor_id;sensor_type;location;lat;lon;timestamp;pressure;altitude;pressure_sealevel;temperature;humidity
71004;BME280;59025;42.050;-8.660;2022-08-01T00:02:00;100554.75;;;27.15;100.00
71004;BME280;59025;42.050;-8.660;2022-08-01T00:04:29;100555.84;;;27.14;100.00
71004;BME280;59025;42.050;-8.660;2022-08-01T00:06:57;100550.41;;;27.11;100.00
71004;BME280;59025;42.050;-8.660;2022-08-01T00:09:24;100551.97;;;27.12;100.00
71004;BME280;59025;42.050;-8.660;2022-08-01T00:11:52;100550.13;;;27.12;100.00
71004;BME280;59025;42.050;-8.660;2022-08-01T00:14:19;100554.16;;;27.10;100.00
71004;BME280;59025;42.050;-8.660;2022-08-01T00:16:46;100547.44;;;27.04;100.00
71004;BME280;59025;42.050;-8.660;2022-08-01T00:19:14;100548.69;;;26.98;100.00
71004;BME280;59025;42.050;-8.660;2022-08-01T00:21:43;100550.06;;;26.95;100.00
71004;BME280;59025;42.050;-8.660;2022-08-01T00:24:10;100546.94;;;26.93;100.00
71004;BME280;59025;42.050;-8.660;2022-08-01T00:26:38;100557.34;;;26.90;100.00
71004;BME280;59025;42.050;-8.660;2022-08-01T00:29:05;100536.34;;;26.85;100.00
71004;BME280;59025;42.050;-8.660;2022-08-01T00:31:33;100542.72;;;26.84;100.00
71004;BME280;59025;42.050;-8.660;2022-08-01T00:34:00;100536.53;;;26.88;100.00
71004;BME280;59025;42.050;-8.660;2022-08-01T00:36:28;100540.25;;;26.87;100.00
71004;BME280;59025;42.050;-8.660;2022-08-01T00:38:56;100543.03;;;26.82;100.00
71004;BME280;59025;42.050;-8.660;2022-08-01T00:41:24;100546.75;;;26.81;100.00
71004;BME280;59025;42.050;-8.660;2022-08-01T00:43:51;100551.56;;;26.79;100.00
71004;BME280;59025;42.050;-8.660;2022-08-01T00:46:19;100543.16;;;26.77;100.00
71004;BME280;59025;42.050;-8.660;2022-08-01T00:48:46;100541.63;;;26.76;100.00
71004;BME280;59025;42.050;-8.660;2022-08-01T00:51:14;100537.25;;;26.72;100.00
71004;BME280;59025;42.050;-8.660;2022-08-01T00:53:42;100545.19;;;26.72;100.00
71004;BME280;59025;42.050;-8.660;2022-08-01T00:56:11;100541.00;;;26.71;100.00
71004;BME280;59025;42.050;-8.660;2022-08-01T00:58:39;100536.00;;;26.69;100.00
71004;BME280;59025;42.050;-8.660;2022-08-01T01:01:07;100544.56;;;26.66;100.00
71004;BME280;59025;42.050;-8.660;2022-08-01T01:03:34;100539.09;;;26.63;100.00
71004;BME280;59025;42.050;-8.660;2022-08-01T01:06:11;100540.31;;;26.57;100.00
71004;BME280;59025;42.050;-8.660;2022-08-01T01:08:43;100546.00;;;26.50;100.00
71004;BME280;59025;42.050;-8.660;2022-08-01T01:11:21;100536.34;;;26.46;100.00
71004;BME280;59025;42.050;-8.660;2022-08-01T01:13:56;100541.16;;;26.44;100.00
71004;BME280;59025;42.050;-8.660;2022-08-01T01:16:25;100531.97;;;26.41;100.00
71004;BME280;59025;42.050;-8.660;2022-08-01T01:18:55;100541.91;;;26.36;100.00
71004;BME280;59025;42.050;-8.660;2022-08-01T01:21:47;100541.06;;;26.27;100.00
71004;BME280;59025;42.050;-8.660;2022-08-01T01:24:24;100542.59;;;26.19;100.00
71004;BME280;59025;42.050;-8.660;2022-08-01T01:26:59;100552.50;;;26.14;100.00
71004;BME280;59025;42.050;-8.660;2022-08-01T01:29:32;100539.91;;;26.11;100.00
71004;BME280;59025;42.050;-8.660;2022-08-01T01:32:06;100547.34;;;26.09;100.00
71004;BME280;59025;42.050;-8.660;2022-08-01T01:34:36;100540.81;;;26.06;100.00
71004;BME280;59025;42.050;-8.660;2022-08-01T01:37:06;100547.47;;;26.04;100.00
71004;BME280;59025;42.050;-8.660;2022-08-01T01:39:36;100546.03;;;25.98;100.00
71004;BME280;59025;42.050;-8.660;2022-08-01T01:42:06;100546.44;;;25.91;100.00
71004;BME280;59025;42.050;-8.660;2022-08-01T01:44:36;100544.88;;;25.90;100.00
71004;BME280;59025;42.050;-8.660;2022-08-01T01:47:05;100542.03;;;25.87;100.00
71004;BME280;59025;42.050;-8.660;2022-08-01T01:49:33;100550.06;;;25.82;100.00
71004;BME280;59025;42.050;-8.660;2022-08-01T01:52:02;100548.34;;;25.77;100.00
71004;BME280;59025;42.050;-8.660;2022-08-01T01:54:37;100543.66;;;25.74;100.00
71004;BME280;59025;42.050;-8.660;2022-08-01T01:57:08;100541.31;;;25.73;100.00
71004;BME280;59025;42.050;-8.660;2022-08-01T01:59:38;100545.31;;;25.70;100.00
71004;BME280;59025;42.050;-8.660;2022-08-01T02:02:07;100537.22;;;25.67;100.00
71004;BME280;59025;42.050;-8.660;2022-08-01T02:04:45;100546.22;;;25.66;100.00
71004;BME280;59025;42.050;-8.660;2022-08-01T02:07:16;100550.84;;;25.60;100.00
71004;BME280;59025;42.050;-8.660;2022-08-01T02:09:46;100552.63;;;25.51;100.00
71004;BME280;59025;42.050;-8.660;2022-08-01T02:12:16;100564.63;;;25.44;100.00
71004;BME280;59025;42.050;-8.660;2022-08-01T02:14:45;100566.78;;;25.42;100.00
71004;BME280;59025;42.050;-8.660;2022-08-01T02:17:16;100564.25;;;25.37;100.00
71004;BME280;59025;42.050;-8.660;2022-08-01T02:19:45;100556.47;;;25.32;100.00
71004;BME280;59025;42.050;-8.660;2022-08-01T02:22:18;100555.31;;;25.24;100.00
71004;BME280;59025;42.050;-8.660;2022-08-01T02:24:52;100559.38;;;25.17;100.00
71004;BME280;59025;42.050;-8.660;2022-08-01T02:27:25;100552.88;;;25.14;100.00
71004;BME280;59025;42.050;-8.660;2022-08-01T02:29:59;100557.16;;;25.10;100.00
71004;BME280;59025;42.050;-8.660;2022-08-01T02:32:31;100552.28;;;25.04;100.00
71004;BME280;59025;42.050;-8.660;2022-08-01T02:35:00;100556.56;;;25.00;100.00
71004;BME280;59025;42.050;-8.660;2022-08-01T02:37:32;100552.47;;;24.94;100.00
71004;BME280;59025;42.050;-8.660;2022-08-01T02:40:00;100556.00;;;24.89;100.00
71004;BME280;59025;42.050;-8.660;2022-08-01T02:42:29;100562.44;;;24.83;100.00
71004;BME280;59025;42.050;-8.660;2022-08-01T02:45:00;100568.28;;;24.80;100.00
71004;BME280;59025;42.050;-8.660;2022-08-01T02:47:29;100565.44;;;24.77;100.00
71004;BME280;59025;42.050;-8.660;2022-08-01T02:49:58;100562.34;;;24.75;100.00
71004;BME280;59025;42.050;-8.660;2022-08-01T02:52:27;100558.25;;;24.69;100.00
71004;BME280;59025;42.050;-8.660;2022-08-01T02:54:58;100563.31;;;24.65;100.00
71004;BME280;59025;42.050;-8.660;2022-08-01T02:57:27;100569.75;;;24.59;100.00
71004;BME280;59025;42.050;-8.660;2022-08-01T02:59:56;100562.38;;;24.56;100.00
71004;BME280;59025;42.050;-8.660;2022-08-01T03:02:27;100569.50;;;24.56;100.00
71004;BME280;59025;42.050;-8.660;2022-08-01T03:04:57;100568.25;;;24.53;100.00
71004;BME280;59025;42.050;-8.660;2022-08-01T03:07:26;100568.03;;;24.50;100.00
71004;BME280;59025;42.050;-8.660;2022-08-01T03:09:56;100567.34;;;24.44;100.00
71004;BME280;59025;42.050;-8.660;2022-08-01T03:12:27;100568.97;;;24.40;100.00
71004;BME280;59025;42.050;-8.660;2022-08-01T03:14:58;100579.28;;;24.37;100.00
71004;BME280;59025;42.050;-8.660;2022-08-01T03:17:29;100567.03;;;24.32;100.00
71004;BME280;59025;42.050;-8.660;2022-08-01T03:19:58;100571.81;;;24.30;100.00
71004;BME280;59025;42.050;-8.660;2022-08-01T03:22:29;100566.53;;;24.30;100.00
71004;BME280;59025;42.050;-8.660;2022-08-01T03:24:58;100572.94;;;24.24;100.00
71004;BME280;59025;42.050;-8.660;2022-08-01T03:27:27;100574.59;;;24.20;100.00
71004;BME280;59025;42.050;-8.660;2022-08-01T03:29:57;100571.44;;;24.18;100.00
71004;BME280;59025;42.050;-8.660;2022-08-01T03:32:28;100578.38;;;24.14;100.00
71004;BME280;59025;42.050;-8.660;2022-08-01T03:34:57;100581.84;;;24.10;100.00
71004;BME280;59025;42.050;-8.660;2022-08-01T03:37:26;100584.84;;;24.03;100.00
71004;BME280;59025;42.050;-8.660;2022-08-01T03:39:58;100585.41;;;24.00;100.00
71004;BME280;59025;42.050;-8.660;2022-08-01T03:42:32;100590.53;;;23.92;100.00
71004;BME280;59025;42.050;-8.660;2022-08-01T03:45:03;100586.63;;;23.89;100.00
71004;BME280;59025;42.050;-8.660;2022-08-01T03:47:35;100584.56;;;23.86;100.00
71004;BME280;59025;42.050;-8.660;2022-08-01T03:50:04;100580.66;;;23.84;100.00
71004;BME280;59025;42.050;-8.660;2022-08-01T03:52:34;100580.44;;;23.80;100.00
71004;BME280;59025;42.050;-8.660;2022-08-01T03:55:06;100580.94;;;23.82;100.00
71004;BME280;59025;42.050;-8.660;2022-08-01T03:57:34;100593.06;;;23.78;100.00
71004;BME280;59025;42.050;-8.660;2022-08-01T04:00:05;100585.50;;;23.77;100.00
71004;BME280;59025;42.050;-8.660;2022-08-01T04:02:37;100590.50;;;23.73;100.00
71004;BME280;59025;42.050;-8.660;2022-08-01T04:05:06;100594.22;;;23.72;100.00
71004;BME280;59025;42.050;-8.660;2022-08-01T04:07:34;100601.13;;;23.68;100.00
71004;BME280;59025;42.050;-8.660;2022-08-01T04:10:03;100594.06;;;23.64;100.00
71004;BME280;59025;42.050;-8.660;2022-08-01T04:12:30;100599.09;;;23.60;100.00
71004;BME280;59025;42.050;-8.660;2022-08-01T04:14:58;100602.06;;;23.54;100.00
71004;BME280;59025;42.050;-8.660;2022-08-01T04:17:25;100605.06;;;23.47;100.00
71004;BME280;59025;42.050;-8.660;2022-08-01T04:19:54;100611.19;;;23.43;100.00
71004;BME280;59025;42.050;-8.660;2022-08-01T04:22:22;100618.31;;;23.37;100.00
71004;BME280;59025;42.050;-8.660;2022-08-01T04:24:52;100626.84;;;23.29;100.00
71004;BME280;59025;42.050;-8.660;2022-08-01T04:27:24;100621.63;;;23.24;100.00
71004;BME280;59025;42.050;-8.660;2022-08-01T04:29:57;100630.34;;;23.20;100.00
71004;BME280;59025;42.050;-8.660;2022-08-01T04:32:26;100635.34;;;23.16;100.00
71004;BME280;59025;42.050;-8.660;2022-08-01T04:34:58;100627.25;;;23.13;100.00
71004;BME280;59025;42.050;-8.660;2022-08-01T04:37:28;100636.72;;;23.09;100.00
71004;BME280;59025;42.050;-8.660;2022-08-01T04:39:57;100636.22;;;23.07;100.00
71004;BME280;59025;42.050;-8.660;2022-08-01T04:42:25;100636.28;;;23.02;100.00
71004;BME280;59025;42.050;-8.660;2022-08-01T04:44:53;100636.06;;;22.98;100.00
71004;BME280;59025;42.050;-8.660;2022-08-01T04:47:22;100648.69;;;22.96;100.00
71004;BME280;59025;42.050;-8.660;2022-08-01T04:49:50;100650.03;;;22.94;100.00
71004;BME280;59025;42.050;-8.660;2022-08-01T04:52:19;100647.72;;;22.87;100.00
71004;BME280;59025;42.050;-8.660;2022-08-01T04:54:47;100656.91;;;22.85;100.00
71004;BME280;59025;42.050;-8.660;2022-08-01T04:57:14;100650.97;;;22.79;100.00
71004;BME280;59025;42.050;-8.660;2022-08-01T04:59:43;100660.16;;;22.77;100.00
71004;BME280;59025;42.050;-8.660;2022-08-01T05:02:13;100663.31;;;22.74;100.00
71004;BME280;59025;42.050;-8.660;2022-08-01T05:04:41;100667.56;;;22.70;100.00
71004;BME280;59025;42.050;-8.660;2022-08-01T05:07:10;100670.72;;;22.67;100.00
71004;BME280;59025;42.050;-8.660;2022-08-01T05:09:40;100665.25;;;22.63;100.00
71004;BME280;59025;42.050;-8.660;2022-08-01T05:12:09;100677.34;;;22.59;100.00
71004;BME280;59025;42.050;-8.660;2022-08-01T05:14:37;100677.38;;;22.54;100.00
71004;BME280;59025;42.050;-8.660;2022-08-01T05:17:06;100678.22;;;22.50;100.00
71004;BME280;59025;42.050;-8.660;2022-08-01T05:19:34;100678.25;;;22.45;100.00
71004;BME280;59025;42.050;-8.660;2022-08-01T05:22:03;100682.75;;;22.39;100.00
71004;BME280;59025;42.050;-8.660;2022-08-01T05:24:31;100678.59;;;22.33;100.00
71004;BME280;59025;42.050;-8.660;2022-08-01T05:27:01;100689.34;;;22.32;100.00
71004;BME280;59025;42.050;-8.660;2022-08-01T05:29:29;100690.94;;;22.28;100.00
71004;BME280;59025;42.050;-8.660;2022-08-01T05:31:56;100695.38;;;22.27;100.00
71004;BME280;59025;42.050;-8.660;2022-08-01T05:34:25;100688.56;;;22.26;100.00
71004;BME280;59025;42.050;-8.660;2022-08-01T05:36:53;100698.56;;;22.24;100.00
71004;BME280;59025;42.050;-8.660;2022-08-01T05:39:20;100699.06;;;22.26;100.00
71004;BME280;59025;42.050;-8.660;2022-08-01T05:41:48;100701.69;;;22.26;100.00
71004;BME280;59025;42.050;-8.660;2022-08-01T05:44:17;100707.16;;;22.30;100.00
71004;BME280;59025;42.050;-8.660;2022-08-01T05:46:44;100703.50;;;22.31;100.00
71004;BME280;59025;42.050;-8.660;2022-08-01T05:49:12;100704.81;;;22.33;100.00
71004;BME280;59025;42.050;-8.660;2022-08-01T05:51:39;100707.66;;;22.37;100.00
71004;BME280;59025;42.050;-8.660;2022-08-01T05:54:07;100701.28;;;22.53;100.00
71004;BME280;59025;42.050;-8.660;2022-08-01T05:56:34;100696.66;;;22.73;100.00
71004;BME280;59025;42.050;-8.660;2022-08-01T05:59:02;100681.66;;;22.79;100.00
71004;BME280;59025;42.050;-8.660;2022-08-01T06:01:31;100695.13;;;22.67;100.00
71004;BME280;59025;42.050;-8.660;2022-08-01T06:03:59;100706.19;;;22.59;100.00
71004;BME280;59025;42.050;-8.660;2022-08-01T06:06:26;100694.44;;;22.52;100.00
71004;BME280;59025;42.050;-8.660;2022-08-01T06:08:54;100703.91;;;22.53;100.00
71004;BME280;59025;42.050;-8.660;2022-08-01T06:11:21;100699.69;;;22.52;100.00
71004;BME280;59025;42.050;-8.660;2022-08-01T06:13:50;100704.94;;;22.52;100.00
71004;BME280;59025;42.050;-8.660;2022-08-01T06:16:17;100705.25;;;22.50;100.00
71004;BME280;59025;42.050;-8.660;2022-08-01T06:18:46;100712.84;;;22.47;100.00
71004;BME280;59025;42.050;-8.660;2022-08-01T06:21:14;100707.09;;;22.45;100.00
71004;BME280;59025;42.050;-8.660;2022-08-01T06:23:42;100712.34;;;22.45;100.00
71004;BME280;59025;42.050;-8.660;2022-08-01T06:26:09;100714.13;;;22.49;100.00
71004;BME280;59025;42.050;-8.660;2022-08-01T06:28:37;100705.50;;;22.49;100.00
71004;BME280;59025;42.050;-8.660;2022-08-01T06:31:04;100707.56;;;22.52;100.00
71004;BME280;59025;42.050;-8.660;2022-08-01T06:33:32;100708.28;;;22.62;100.00
71004;BME280;59025;42.050;-8.660;2022-08-01T06:36:01;100701.91;;;22.73;100.00
71004;BME280;59025;42.050;-8.660;2022-08-01T06:38:29;100702.13;;;22.77;100.00
71004;BME280;59025;42.050;-8.660;2022-08-01T06:40:57;100696.94;;;22.72;100.00
71004;BME280;59025;42.050;-8.660;2022-08-01T06:43:24;100703.19;;;22.76;100.00
71004;BME280;59025;42.050;-8.660;2022-08-01T06:45:52;100688.75;;;22.78;100.00
71004;BME280;59025;42.050;-8.660;2022-08-01T06:48:19;100689.19;;;22.85;100.00
71004;BME280;59025;42.050;-8.660;2022-08-01T06:50:47;100691.25;;;22.88;100.00
71004;BME280;59025;42.050;-8.660;2022-08-01T06:53:16;100686.75;;;23.22;100.00
71004;BME280;59025;42.050;-8.660;2022-08-01T06:55:43;100674.88;;;23.30;100.00
71004;BME280;59025;42.050;-8.660;2022-08-01T06:58:11;100691.47;;;23.25;100.00
71004;BME280;59025;42.050;-8.660;2022-08-01T07:00:38;100682.53;;;23.26;100.00
71004;BME280;59025;42.050;-8.660;2022-08-01T07:03:07;100676.78;;;23.24;100.00
71004;BME280;59025;42.050;-8.660;2022-08-01T07:05:35;100684.25;;;23.36;100.00
71004;BME280;59025;42.050;-8.660;2022-08-01T07:08:03;100668.75;;;23.58;100.00
71004;BME280;59025;42.050;-8.660;2022-08-01T07:10:32;100653.47;;;24.52;100.00
71004;BME280;59025;42.050;-8.660;2022-08-01T07:12:59;100614.22;;;25.91;100.00
71004;BME280;59025;42.050;-8.660;2022-08-01T07:15:31;100608.38;;;26.46;100.00
71004;BME280;59025;42.050;-8.660;2022-08-01T07:18:00;100602.41;;;26.93;100.00
71004;BME280;59025;42.050;-8.660;2022-08-01T07:20:29;100595.84;;;27.21;100.00
71004;BME280;59025;42.050;-8.660;2022-08-01T07:22:57;100602.88;;;26.87;100.00
71004;BME280;59025;42.050;-8.660;2022-08-01T07:25:25;100599.00;;;27.40;100.00
71004;BME280;59025;42.050;-8.660;2022-08-01T07:27:54;100591.69;;;27.54;100.00
71004;BME280;59025;42.050;-8.660;2022-08-01T07:30:21;100587.22;;;27.97;100.00
71004;BME280;59025;42.050;-8.660;2022-08-01T07:32:49;100588.22;;;28.47;100.00
71004;BME280;59025;42.050;-8.660;2022-08-01T07:35:16;100592.94;;;28.16;100.00
71004;BME280;59025;42.050;-8.660;2022-08-01T07:37:44;100586.84;;;28.79;100.00
71004;BME280;59025;42.050;-8.660;2022-08-01T07:40:11;100591.56;;;29.02;100.00
71004;BME280;59025;42.050;-8.660;2022-08-01T07:42:39;100592.31;;;29.81;100.00
71004;BME280;59025;42.050;-8.660;2022-08-01T07:45:10;100582.09;;;29.71;100.00
71004;BME280;59025;42.050;-8.660;2022-08-01T07:47:38;100581.06;;;29.64;100.00
71004;BME280;59025;42.050;-8.660;2022-08-01T07:50:07;100584.94;;;29.87;100.00
71004;BME280;59025;42.050;-8.660;2022-08-01T07:52:34;100580.91;;;29.81;100.00
71004;BME280;59025;42.050;-8.660;2022-08-01T07:55:02;100586.00;;;30.06;100.00
71004;BME280;59025;42.050;-8.660;2022-08-01T07:57:30;100589.28;;;30.03;100.00
71004;BME280;59025;42.050;-8.660;2022-08-01T07:59:58;100592.50;;;29.97;100.00
71004;BME280;59025;42.050;-8.660;2022-08-01T08:02:27;100577.16;;;30.59;100.00
71004;BME280;59025;42.050;-8.660;2022-08-01T08:04:54;100577.06;;;30.91;100.00
71004;BME280;59025;42.050;-8.660;2022-08-01T08:07:22;100577.66;;;31.48;100.00
71004;BME280;59025;42.050;-8.660;2022-08-01T08:09:49;100576.53;;;31.49;100.00
71004;BME280;59025;42.050;-8.660;2022-08-01T08:12:17;100579.19;;;30.98;100.00
71004;BME280;59025;42.050;-8.660;2022-08-01T08:14:44;100569.66;;;30.97;100.00
71004;BME280;59025;42.050;-8.660;2022-08-01T08:17:12;100574.44;;;31.55;100.00
71004;BME280;59025;42.050;-8.660;2022-08-01T08:19:41;100577.63;;;32.15;100.00
71004;BME280;59025;42.050;-8.660;2022-08-01T08:22:08;100581.34;;;32.26;100.00
71004;BME280;59025;42.050;-8.660;2022-08-01T08:24:37;100577.78;;;32.22;100.00
71004;BME280;59025;42.050;-8.660;2022-08-01T08:27:04;100578.81;;;32.02;100.00
71004;BME280;59025;42.050;-8.660;2022-08-01T08:29:33;100580.66;;;32.60;100.00
71004;BME280;59025;42.050;-8.660;2022-08-01T08:32:01;100577.56;;;33.05;100.00
71004;BME280;59025;42.050;-8.660;2022-08-01T08:34:29;100574.97;;;33.62;100.00
71004;BME280;59025;42.050;-8.660;2022-08-01T08:36:58;100571.84;;;33.98;100.00
71004;BME280;59025;42.050;-8.660;2022-08-01T08:39:26;100572.59;;;34.40;100.00
71004;BME280;59025;42.050;-8.660;2022-08-01T08:41:56;100574.16;;;33.99;100.00
71004;BME280;59025;42.050;-8.660;2022-08-01T08:44:24;100562.22;;;34.35;100.00
71004;BME280;59025;42.050;-8.660;2022-08-01T08:46:52;100565.75;;;34.42;100.00
71004;BME280;59025;42.050;-8.660;2022-08-01T08:49:23;100562.31;;;34.90;100.00
71004;BME280;59025;42.050;-8.660;2022-08-01T08:51:52;100559.34;;;34.73;100.00
71004;BME280;59025;42.050;-8.660;2022-08-01T08:54:22;100550.41;;;34.84;100.00
71004;BME280;59025;42.050;-8.660;2022-08-01T08:56:51;100550.97;;;34.74;100.00
71004;BME280;59025;42.050;-8.660;2022-08-01T08:59:20;100546.25;;;34.64;100.00
71004;BME280;59025;42.050;-8.660;2022-08-01T09:01:47;100547.53;;;35.00;100.00
71004;BME280;59025;42.050;-8.660;2022-08-01T09:04:16;100544.44;;;34.94;100.00
71004;BME280;59025;42.050;-8.660;2022-08-01T09:06:43;100551.63;;;34.90;100.00
71004;BME280;59025;42.050;-8.660;2022-08-01T09:09:11;100545.66;;;35.30;100.00
71004;BME280;59025;42.050;-8.660;2022-08-01T09:11:40;100543.19;;;35.47;100.00
71004;BME280;59025;42.050;-8.660;2022-08-01T09:14:09;100537.53;;;35.23;100.00
71004;BME280;59025;42.050;-8.660;2022-08-01T09:16:40;100541.16;;;35.37;100.00
71004;BME280;59025;42.050;-8.660;2022-08-01T09:19:11;100546.41;;;35.96;99.80
71004;BME280;59025;42.050;-8.660;2022-08-01T09:21:39;100554.97;;;35.39;100.00
71004;BME280;59025;42.050;-8.660;2022-08-01T09:24:16;100549.50;;;35.03;100.00
71004;BME280;59025;42.050;-8.660;2022-08-01T09:26:46;100535.97;;;35.22;100.00
71004;BME280;59025;42.050;-8.660;2022-08-01T09:29:18;100538.50;;;35.70;99.34
71004;BME280;59025;42.050;-8.660;2022-08-01T09:31:46;100535.03;;;36.06;98.09
71004;BME280;59025;42.050;-8.660;2022-08-01T09:34:15;100540.16;;;36.22;98.57
71004;BME280;59025;42.050;-8.660;2022-08-01T09:36:45;100542.22;;;36.42;97.54
71004;BME280;59025;42.050;-8.660;2022-08-01T09:39:18;100545.47;;;36.65;95.19
71004;BME280;59025;42.050;-8.660;2022-08-01T09:41:47;100549.75;;;37.45;90.84
71004;BME280;59025;42.050;-8.660;2022-08-01T09:44:17;100557.38;;;37.39;90.52
71004;BME280;59025;42.050;-8.660;2022-08-01T09:46:50;100544.16;;;37.03;91.67
71004;BME280;59025;42.050;-8.660;2022-08-01T09:49:28;100537.38;;;37.19;93.05
71004;BME280;59025;42.050;-8.660;2022-08-01T09:51:57;100544.13;;;36.96;92.09
71004;BME280;59025;42.050;-8.660;2022-08-01T09:54:32;100536.31;;;36.70;92.22
71004;BME280;59025;42.050;-8.660;2022-08-01T09:57:13;100530.69;;;36.92;92.43
71004;BME280;59025;42.050;-8.660;2022-08-01T09:59:42;100526.53;;;37.05;91.93
71004;BME280;59025;42.050;-8.660;2022-08-01T10:02:11;100537.06;;;37.38;90.47
71004;BME280;59025;42.050;-8.660;2022-08-01T10:04:48;100535.63;;;37.72;87.91
71004;BME280;59025;42.050;-8.660;2022-08-01T10:07:16;100532.16;;;37.65;88.47
71004;BME280;59025;42.050;-8.660;2022-08-01T10:09:44;100538.00;;;38.23;86.62
71004;BME280;59025;42.050;-8.660;2022-08-01T10:12:14;100539.13;;;38.50;84.64
71004;BME280;59025;42.050;-8.660;2022-08-01T10:14:43;100531.44;;;38.38;85.13
71004;BME280;59025;42.050;-8.660;2022-08-01T10:17:14;100541.09;;;38.42;85.00
71004;BME280;59025;42.050;-8.660;2022-08-01T10:19:43;100537.22;;;38.15;83.84
71004;BME280;59025;42.050;-8.660;2022-08-01T10:22:12;100525.28;;;37.95;87.49
71004;BME280;59025;42.050;-8.660;2022-08-01T10:24:43;100514.53;;;37.95;86.53
71004;BME280;59025;42.050;-8.660;2022-08-01T10:27:14;100519.56;;;38.00;88.17
71004;BME280;59025;42.050;-8.660;2022-08-01T10:29:47;100514.19;;;38.46;85.82
71004;BME280;59025;42.050;-8.660;2022-08-01T10:32:17;100516.03;;;38.87;84.39
71004;BME280;59025;42.050;-8.660;2022-08-01T10:34:45;100522.06;;;39.12;80.49
71004;BME280;59025;42.050;-8.660;2022-08-01T10:37:13;100520.88;;;39.31;80.13
71004;BME280;59025;42.050;-8.660;2022-08-01T10:39:41;100511.16;;;40.05;77.34
71004;BME280;59025;42.050;-8.660;2022-08-01T10:42:10;100522.50;;;40.30;72.84
71004;BME280;59025;42.050;-8.660;2022-08-01T10:44:39;100524.66;;;39.98;73.46
71004;BME280;59025;42.050;-8.660;2022-08-01T10:47:09;100518.19;;;39.89;73.43
71004;BME280;59025;42.050;-8.660;2022-08-01T10:49:43;100517.03;;;39.90;74.65
71004;BME280;59025;42.050;-8.660;2022-08-01T10:52:16;100504.09;;;40.22;74.15
71004;BME280;59025;42.050;-8.660;2022-08-01T10:54:43;100508.34;;;40.19;71.85
71004;BME280;59025;42.050;-8.660;2022-08-01T10:57:11;100500.72;;;40.07;75.12
71004;BME280;59025;42.050;-8.660;2022-08-01T10:59:51;100494.94;;;40.49;72.10
71004;BME280;59025;42.050;-8.660;2022-08-01T11:02:29;100495.66;;;40.57;68.00
71004;BME280;59025;42.050;-8.660;2022-08-01T11:05:02;100494.44;;;39.77;71.99
71004;BME280;59025;42.050;-8.660;2022-08-01T11:07:43;100495.22;;;39.77;69.92
71004;BME280;59025;42.050;-8.660;2022-08-01T11:10:22;100494.78;;;39.79;72.65
71004;BME280;59025;42.050;-8.660;2022-08-01T11:12:51;100479.22;;;39.97;73.97
71004;BME280;59025;42.050;-8.660;2022-08-01T11:15:26;100489.00;;;40.28;69.97
71004;BME280;59025;42.050;-8.660;2022-08-01T11:18:03;100488.69;;;40.19;71.60
71004;BME280;59025;42.050;-8.660;2022-08-01T11:20:34;100477.47;;;40.24;72.82
71004;BME280;59025;42.050;-8.660;2022-08-01T11:23:24;100474.81;;;40.61;67.87
71004;BME280;59025;42.050;-8.660;2022-08-01T11:26:12;100482.22;;;40.83;62.90
71004;BME280;59025;42.050;-8.660;2022-08-01T11:28:43;100488.69;;;40.96;63.01
71004;BME280;59025;42.050;-8.660;2022-08-01T11:31:30;100475.41;;;41.35;63.95
71004;BME280;59025;42.050;-8.660;2022-08-01T11:33:59;100465.47;;;41.29;65.56
71004;BME280;59025;42.050;-8.660;2022-08-01T11:36:27;100476.50;;;41.11;63.75
71004;BME280;59025;42.050;-8.660;2022-08-01T11:39:13;100472.81;;;40.98;62.23
71004;BME280;59025;42.050;-8.660;2022-08-01T11:41:42;100467.09;;;40.93;64.21
71004;BME280;59025;42.050;-8.660;2022-08-01T11:44:14;100464.06;;;40.87;59.37
71004;BME280;59025;42.050;-8.660;2022-08-01T11:46:52;100466.91;;;40.77;56.52
71004;BME280;59025;42.050;-8.660;2022-08-01T11:49:25;100462.53;;;40.56;60.88
71004;BME280;59025;42.050;-8.660;2022-08-01T11:52:04;100466.91;;;40.77;56.59
71004;BME280;59025;42.050;-8.660;2022-08-01T11:54:35;100458.81;;;40.77;56.50
71004;BME280;59025;42.050;-8.660;2022-08-01T11:57:05;100466.38;;;40.89;53.14
71004;BME280;59025;42.050;-8.660;2022-08-01T11:59:40;100469.69;;;41.03;49.74
71004;BME280;59025;42.050;-8.660;2022-08-01T12:02:21;100469.22;;;41.35;48.15
71004;BME280;59025;42.050;-8.660;2022-08-01T12:04:53;100467.63;;;41.41;45.72
71004;BME280;59025;42.050;-8.660;2022-08-01T12:07:23;100464.56;;;41.39;48.75
71004;BME280;59025;42.050;-8.660;2022-08-01T12:09:59;100462.34;;;41.30;49.25
71004;BME280;59025;42.050;-8.660;2022-08-01T12:12:28;100455.72;;;41.61;47.44
71004;BME280;59025;42.050;-8.660;2022-08-01T12:14:58;100456.44;;;41.65;49.90
71004;BME280;59025;42.050;-8.660;2022-08-01T12:17:32;100444.91;;;41.61;50.78
71004;BME280;59025;42.050;-8.660;2022-08-01T12:20:01;100451.41;;;41.41;48.21
71004;BME280;59025;42.050;-8.660;2022-08-01T12:22:29;100436.53;;;41.29;53.48
71004;BME280;59025;42.050;-8.660;2022-08-01T12:25:05;100432.56;;;41.37;54.70
71004;BME280;59025;42.050;-8.660;2022-08-01T12:27:32;100423.38;;;41.05;57.80
71004;BME280;59025;42.050;-8.660;2022-08-01T12:30:00;100414.94;;;40.69;55.69
71004;BME280;59025;42.050;-8.660;2022-08-01T12:32:29;100417.31;;;39.90;60.33
71004;BME280;59025;42.050;-8.660;2022-08-01T12:35:01;100399.75;;;39.71;65.55
71004;BME280;59025;42.050;-8.660;2022-08-01T12:37:29;100406.00;;;39.61;66.75
71004;BME280;59025;42.050;-8.660;2022-08-01T12:39:57;100391.78;;;38.99;69.64
71004;BME280;59025;42.050;-8.660;2022-08-01T12:42:26;100390.31;;;38.84;69.98
71004;BME280;59025;42.050;-8.660;2022-08-01T12:44:54;100393.78;;;38.88;71.19
71004;BME280;59025;42.050;-8.660;2022-08-01T12:47:23;100383.34;;;38.97;72.30